Nationale Sud-Est Poule les Echarmeaux (69) - E

Date : 13/04/2014
Distance : 5,600 km

Place Nom Licence Catégorie Club Temps min/km CN à J-60 Points Différence Nouveau CN
1 DROIN Solène 17925 D18 4201RA 0:48:40 8'41 5570 7023 +1453 6245
2 POURRE Alain 736 H50 2508FC 0:48:46 8'42 6954 7008 +54 6900
3 MARCHEGAY Bruno 12679 H50 1905LI 0:49:20 8'48 6657 6928 +271 6753
4 GROSHENS Didier 2252 H50 9202IF 0:49:44 8'52 6289 6872 +583 6297
5 HABERKORN Chloé 10396 D20 2105BO 0:50:23 8'59 6203 6783 +580 6343
6 GRILLET Serge 15424 H50 7404RA 0:53:08 9'29 5694 6432 +738 6042
7 FLEURENT Dominique 276 H50 7404RA 0:54:12 9'40 5728 6306 +578 6034
8 VUILLEMIN Michel 2953 H50 2508FC 0:54:55 9'48 6586 6224 -362 6366
9 LALEVEE Jean-David 3136 H50 2104BO 0:55:33 9'55 6153 6153 +0 6287
10 DENAIX Michel 2321 H50 7403RA 0:56:58 10'10 6660 6000 -660 6606
11 GIRARD Lucille 19689 D20 3705CE 0:57:02 10'11 5833 5993 +160 5903
12 SMIRNOV Konstantin 9629 H50 5906NO 0:57:59 10'21 6047 5894 -153 6048
13 SANDEVOIR Benoit 2936 H50 1403NM 1:00:56 10'52 6158 5609 -549 6098
14 LALEVEE Jean-Charles 3134 H50 8903BO 1:01:41 11'00 6656 5541 -1115 6653
15 BEAUVIR Maëlle 12709 D18 3502BR 1:01:44 11'01 5422 5536 +114 5883
16 MOLLARET Bruno 14535 H50 7404RA 1:02:40 11'11 5112 5454 +342 5288
17 MARTY Michel 13196 H50 4601MP 1:03:02 11'15 5423 5422 -1 5369
18 FOL Loreline 16393 D18 3105MP 1:04:10 11'27 4811 5326 +515 5004
19 GUILLEMET Océane 22819 D18 3318AQ 1:04:19 11'29 5383 5314 -69 5603
20 DELENNE Camilla 13800 D18 1307PR 1:05:46 11'44 5240 5197 -43 5310
21 TERZI Pierre 4334 H50 2109BO 1:05:46 11'44 5586 5197 -389 5437
22 LEGERE Pascal 8081 H50 5906NO 1:05:54 11'46 5816 5186 -630 5660
23 FOLTZER Cécile 26907 D18 2517FC 1:06:26 11'51 4515 5145 +630 4976
24 ROCHE Robert 10089 H50 3810RA 1:06:32 11'52 5516 5137 -379 5370
25 ROUX JACKY 25235 H50 4201RA 1:06:36 11'53 4928 5132 +204 5079
26 CREUSAT Eva 23806 D18 8809LO 1:06:56 11'57 4594 5106 +512 4858
27 PICAZO Marie 16555 D18 8405PR 1:07:24 12'02 4525 5071 +546 4684
28 HUEBER Francois 5640 H50 6806AL 1:07:26 12'02 5068 5068 +0 5071
29 MARTINEZ Francois 9348 H50 4012AQ 1:08:03 12'09 6142 5022 -1120 6171
30 BODY Mathilde 10184 D18 7305RA 1:08:49 12'17 5193 4966 -227 5075
31 GIBIAT Frédéric 3546 H50 8405PR 1:09:07 12'20 5367 4945 -422 5340
32 LUTHRINGER Coline 10091 D18 8809LO 1:09:15 12'21 4800 4935 +135 4971
33 BERRARD Anna 19762 D18 2607RA 1:09:35 12'25 4670 4912 +242 4947
34 BASSET Fiona 23384 D18 6911RA 1:09:52 12'28 5052 4892 -160 4943
35 VALETTE Marion 10430 D18 6913RA 1:09:55 12'29 5200 4888 -312 5141
36 GENNARO Leslie 20863 D18 3810RA 1:11:41 12'48 3946 4768 +822 4230
37 GUENIN Olivier 13491 H50 5116CA 1:11:52 12'50 5033 4756 -277 4987
38 GUINOT Marion 15018 D18 2108BO 1:11:59 12'51 4408 4748 +340 4527
39 REINEN Franck 20647 H50 4504CE 1:12:21 12'55 4779 4724 -55 4806
40 MONNOT Gilbert 18306 H50 2108BO 1:12:35 12'57 5530 4709 -821 5316
41 ELIAS Pauline 16137 D18 1307PR 1:12:37 12'58 4520 4707 +187 4723
42 PETER-JAN Lucile 19276 D18 3705CE 1:13:23 13'06 5066 4657 -409 4904
43 FERRETTI Bernard 815 H50 4203RA 1:14:16 13'15 3992 4602 +610 4223
44 TREVISAN Georges 15778 H50 7305RA 1:14:30 13'18 4855 4588 -267 4855
45 BORNARD Julie 9402 D20 7305RA 1:14:44 13'20 5314 4573 -741 5290
46 THERRY Gilles 10695 H50 7108BO 1:15:55 13'33 3793 4502 +709 4498
47 FALGA Beatrice 12403 D18 6911RA 1:16:10 13'36 3541 4487 +946 3904
48 DUQUENNE Audrey 23885 D18 5907NO 1:16:55 13'44 4882 4443 -439 5075
49 MOTHE Pierre 17711 H50 4201RA 1:17:45 13'53 3541 4396 +855 3973
50 GUTSCHENRITTER Guy 1808 H50 2517FC 1:18:03 13'56 5513 4379 -1134 5059
51 RAVENEL Philippe 10901 H50 6804AL 1:18:08 13'57 4828 4374 -454 4865
52 GRATIEN Jacques 8773 H50 7403RA 1:18:28 14'00 4104 4356 +252 3749
53 COUVERCELLE Constance 25180 D18 2109BO 1:19:53 14'15 3750 4278 +528 3962
54 DEFIX Dominique 13336 H50 4203RA 1:20:30 14'22 4751 4246 -505 4751
55 MOUSSU Sarah 22301 D18 3318AQ 1:21:00 14'27 4637 4219 -418 4624
56 BESTEL Sandra 10758 D18 9105IF 1:22:04 14'39 4230 4165 -65 4270
57 LAVILLE Xavier 18410 H50 1307PR 1:23:36 14'55 5182 4088 -1094 5138
58 FISCHER Frederic 1977 H50 9109IF 1:26:15 15'24 4232 3963 -269 4381
59 PICAZO J-Jacques 17790 H50 8405PR 1:31:09 16'16 3992 3750 -242 4012
60 RADISSON Bruno 18078 H50 6913RA 1:32:01 16'25 3800 3714 -86 3733
61 PEYRARD Julie 22991 D18 1104LR 1:33:14 16'38 2967 3666 +699 3350
62 BLANC-TRANCHANT Pierre 16798 H50 3810RA 1:33:55 16'46 3639 3167
63 JOLY Thierry 312 H50 6803AL 1:34:22 16'51 5954 3622 -2332 5825
64 BASTIEN Xavier 14498 H50 6906RA 1:36:05 17'09 0 3557 3415
65 FERRAND Eric 24661 H50 4203RA 1:36:09 17'10 3924 3555 -369 3989
66 GRANSART Renaud 1752 H50 5402LO 1:38:32 17'35 3503 3469 -34 3608
67 RIVOLLIER Isaline 22451 D20 4201RA 1:39:40 17'47 4627 3429 -1198 4565
68 FERREOL Christian 22742 H50 4206RA 1:40:07 17'52 1919 3414 +1495 2602
69 UHL Laura 28392 D18 2604RA 1:42:22 18'16 0 3339 2628
70 WOLZ Patrice 25956 H50 2508FC 1:44:41 18'41 2826 3265 +439 2961
71 CHARON Alain 15821 H50 2105BO 1:46:56 19'05 3810 3196 -614 4195
72 PELLETIER Mathilde 20022 D18 2105BO 1:50:12 19'40 2646 3101 +455 2655
73 CHATAGNIER Clea 11106 D18 7404RA 2:10:23 23'16 1316 2621 +1305 1877
74 NIEDERHOFFER Claude 23148 H50 6806AL 2:44:06 29'18 2814 2083 -731 3123
RORA Jose 7702 H50 7719IF pm None 5714 0 5765
MANGIONE François 7982 H50 2109BO pm None 5920 0 5918
BONNEAU Paul 3353 H50 7719IF pm None 5530 0 5623
DUFOUR Marie 26623 D18 7407RA pm None 2647 0 2853
CAILLET François 8765 H50 2109BO pm None 2972 0 2863